createdAt,value
2018-09-12T00:00:58.441Z,7.30
2018-09-12T00:01:58.399Z,8.70
2018-09-12T00:02:58.422Z,8.30
2018-09-12T00:03:58.437Z,8.70
2018-09-12T00:04:58.431Z,7.30
2018-09-12T00:05:58.409Z,6.20
2018-09-12T00:06:58.444Z,7.60
2018-09-12T00:07:58.401Z,6.30
2018-09-12T00:08:58.430Z,5.80
2018-09-12T00:09:58.418Z,6.50
2018-09-12T00:10:58.453Z,6.20
2018-09-12T00:11:58.431Z,6.20
2018-09-12T00:12:58.465Z,7.80
2018-09-12T00:13:58.445Z,7.10
2018-09-12T00:14:58.455Z,5.90
2018-09-12T00:15:58.440Z,6.40
2018-09-12T00:16:58.439Z,5.60
2018-09-12T00:17:58.454Z,6.70
2018-09-12T00:18:58.437Z,7.70
2018-09-12T00:19:58.457Z,5.10
2018-09-12T00:20:58.457Z,7.60
2018-09-12T00:21:58.477Z,6.50
2018-09-12T00:22:58.456Z,5.30
2018-09-12T00:23:58.460Z,5.60
2018-09-12T00:24:58.663Z,6.80
2018-09-12T00:25:58.495Z,6.30
2018-09-12T00:26:58.483Z,6.30
2018-09-12T00:27:58.467Z,5.50
2018-09-12T00:28:58.454Z,6.80
2018-09-12T00:29:58.482Z,7.20
2018-09-12T00:30:58.479Z,5.20
2018-09-12T00:31:58.489Z,5.30
2018-09-12T00:32:58.477Z,6.00
2018-09-12T00:33:58.473Z,6.00
2018-09-12T00:34:58.490Z,7.30
2018-09-12T00:35:58.485Z,6.70
2018-09-12T00:36:58.530Z,5.60
2018-09-12T00:37:58.587Z,5.50
2018-09-12T00:38:58.497Z,6.90
2018-09-12T00:39:58.498Z,7.70
2018-09-12T00:40:58.518Z,6.90
2018-09-12T00:41:58.496Z,6.00
2018-09-12T00:42:58.501Z,5.80
2018-09-12T00:43:58.513Z,7.90
2018-09-12T00:44:58.521Z,6.50
2018-09-12T00:45:58.525Z,6.00
2018-09-12T00:46:58.558Z,6.00
2018-09-12T00:47:58.519Z,6.00
2018-09-12T00:48:58.526Z,6.00
2018-09-12T00:49:58.525Z,6.00
2018-09-12T00:50:58.566Z,7.90
2018-09-12T00:51:58.521Z,6.70
2018-09-12T00:52:58.527Z,7.40
2018-09-12T00:53:58.528Z,6.30
2018-09-12T00:54:58.542Z,6.40
2018-09-12T00:55:58.542Z,7.10
2018-09-12T00:56:58.536Z,6.40
2018-09-12T00:57:58.547Z,9.10
2018-09-12T00:58:58.547Z,7.00
2018-09-12T00:59:58.560Z,6.30
2018-09-12T01:00:58.630Z,9.10
2018-09-12T01:01:58.560Z,7.20
2018-09-12T01:02:58.571Z,7.00
2018-09-12T01:03:58.556Z,7.60
2018-09-12T01:04:58.592Z,6.90
2018-09-12T01:05:59.495Z,6.80
2018-09-12T01:06:58.593Z,7.70
2018-09-12T01:07:58.568Z,6.00
2018-09-12T01:08:58.598Z,7.60
2018-09-12T01:09:58.575Z,7.20
2018-09-12T01:10:58.596Z,11.50
2018-09-12T01:11:58.588Z,6.50
2018-09-12T01:12:58.566Z,8.30
2018-09-12T01:13:58.579Z,7.30
2018-09-12T01:14:58.581Z,6.60
2018-09-12T01:15:58.586Z,6.60
2018-09-12T01:16:58.593Z,8.10
2018-09-12T01:17:58.598Z,7.50
2018-09-12T01:18:58.687Z,7.60
2018-09-12T01:19:58.600Z,6.90
2018-09-12T01:20:58.590Z,7.70
2018-09-12T01:21:58.597Z,7.80
2018-09-12T01:22:58.643Z,7.20
2018-09-12T01:23:58.603Z,6.50
2018-09-12T01:24:58.620Z,8.30
2018-09-12T01:25:58.621Z,7.80
2018-09-12T01:26:58.620Z,7.00
2018-09-12T01:27:58.638Z,7.50
2018-09-12T01:28:59.508Z,6.90
2018-09-12T01:29:58.643Z,7.70
2018-09-12T01:30:58.616Z,8.70
2018-09-12T01:31:58.655Z,8.80
2018-09-12T01:32:58.631Z,7.20
2018-09-12T01:33:58.638Z,9.20
2018-09-12T01:34:58.646Z,7.30
2018-09-12T01:35:58.632Z,8.70
2018-09-12T01:36:58.632Z,7.40
2018-09-12T01:37:58.665Z,10.00
2018-09-12T01:38:58.641Z,9.00
2018-09-12T01:39:58.646Z,7.60
2018-09-12T01:40:58.641Z,8.30
2018-09-12T01:41:58.768Z,9.70
2018-09-12T01:42:58.648Z,7.40
2018-09-12T01:43:58.659Z,7.60
2018-09-12T01:44:58.659Z,7.10
2018-09-12T01:45:58.660Z,7.50
2018-09-12T01:46:58.664Z,8.00
2018-09-12T01:47:58.659Z,8.10
2018-09-12T01:48:58.698Z,10.70
2018-09-12T01:49:58.686Z,7.70
2018-09-12T01:50:58.687Z,10.10
2018-09-12T01:51:58.692Z,7.60
2018-09-12T01:52:58.719Z,9.30
2018-09-12T01:53:58.709Z,9.70
2018-09-12T01:54:58.762Z,8.20
2018-09-12T01:55:58.857Z,9.30
2018-09-12T01:56:58.689Z,10.20
2018-09-12T01:57:58.690Z,9.20
2018-09-12T01:58:58.694Z,8.50
2018-09-12T01:59:58.700Z,10.00
2018-09-12T02:00:58.690Z,9.70
2018-09-12T02:01:58.780Z,10.20
2018-09-12T02:02:58.715Z,9.20
2018-09-12T02:03:58.710Z,9.70
2018-09-12T02:04:58.704Z,8.70
2018-09-12T02:05:58.715Z,9.20
2018-09-12T02:06:58.702Z,8.40
2018-09-12T02:07:58.701Z,8.90
2018-09-12T02:08:58.726Z,8.70
2018-09-12T02:09:58.743Z,9.00
2018-09-12T02:10:58.734Z,9.20
2018-09-12T02:11:58.717Z,8.90
2018-09-12T02:12:58.782Z,9.70
2018-09-12T02:13:58.727Z,8.40
2018-09-12T02:14:58.731Z,8.90
2018-09-12T02:15:58.730Z,11.00
2018-09-12T02:16:58.731Z,9.30
2018-09-12T02:17:58.759Z,8.60
2018-09-12T02:18:58.759Z,8.40
2018-09-12T02:19:58.726Z,9.40
2018-09-12T02:20:58.744Z,8.10
2018-09-12T02:21:58.736Z,10.10
2018-09-12T02:22:58.755Z,8.80
2018-09-12T02:23:58.759Z,8.20
2018-09-12T02:24:58.749Z,9.70
2018-09-12T02:25:58.814Z,8.70
2018-09-12T02:26:58.750Z,8.80
2018-09-12T02:27:58.758Z,8.50
2018-09-12T02:28:58.764Z,8.20
2018-09-12T02:29:58.772Z,10.10
2018-09-12T02:30:58.786Z,8.70
2018-09-12T02:31:58.787Z,8.50
2018-09-12T02:32:58.788Z,7.90
2018-09-12T02:33:58.768Z,9.60
2018-09-12T02:34:58.772Z,9.30
2018-09-12T02:35:58.809Z,8.50
2018-09-12T02:36:58.786Z,7.60
2018-09-12T02:37:58.798Z,9.00
2018-09-12T02:38:58.795Z,8.90
2018-09-12T02:39:58.789Z,8.80
2018-09-12T02:40:58.788Z,8.40
2018-09-12T02:41:58.791Z,8.80
2018-09-12T02:42:58.796Z,7.80
2018-09-12T02:43:58.826Z,8.30
2018-09-12T02:44:58.800Z,8.20
2018-09-12T02:45:58.795Z,8.20
2018-09-12T02:46:58.795Z,8.30
2018-09-12T02:47:58.806Z,8.00
2018-09-12T02:48:58.826Z,8.60
2018-09-12T02:49:58.827Z,8.40
2018-09-12T02:50:58.815Z,10.00
2018-09-12T02:51:58.816Z,9.70
2018-09-12T02:52:58.854Z,9.20
2018-09-12T02:53:58.923Z,8.60
2018-09-12T02:54:58.819Z,10.50
2018-09-12T02:55:58.818Z,8.40
2018-09-12T02:56:58.829Z,9.60
2018-09-12T02:57:58.833Z,10.20
2018-09-12T02:58:58.841Z,9.70
2018-09-12T02:59:58.834Z,9.60
2018-09-12T03:00:58.855Z,9.40
2018-09-12T03:01:58.832Z,9.50
2018-09-12T03:02:58.838Z,9.30
2018-09-12T03:03:58.852Z,9.70
2018-09-12T03:04:58.849Z,10.20
2018-09-12T03:05:58.838Z,9.80
2018-09-12T03:06:58.928Z,10.10
2018-09-12T03:07:58.902Z,9.90
2018-09-12T03:08:58.846Z,9.90
2018-09-12T03:09:58.851Z,9.70
2018-09-12T03:10:58.848Z,10.30
2018-09-12T03:11:58.849Z,10.10
2018-09-12T03:12:58.875Z,9.90
2018-09-12T03:13:58.864Z,10.80
2018-09-12T03:14:58.896Z,12.10
2018-09-12T03:15:58.889Z,11.20
2018-09-12T03:16:58.931Z,10.50
2018-09-12T03:17:58.894Z,11.30
2018-09-12T03:18:58.890Z,10.30
2018-09-12T03:19:58.874Z,10.90
2018-09-12T03:20:59.133Z,10.80
2018-09-12T03:21:58.895Z,11.50
2018-09-12T03:22:58.887Z,10.90
2018-09-12T03:23:58.881Z,11.50
2018-09-12T03:24:58.888Z,11.30
2018-09-12T03:25:58.899Z,10.80
2018-09-12T03:26:58.886Z,11.90
2018-09-12T03:27:58.897Z,11.60
2018-09-12T03:28:58.905Z,11.20
2018-09-12T03:29:59.001Z,11.20
2018-09-12T03:30:58.937Z,12.00
2018-09-12T03:31:58.915Z,12.90
2018-09-12T03:32:58.905Z,12.00
2018-09-12T03:33:58.906Z,11.70
2018-09-12T03:34:58.920Z,11.90
2018-09-12T03:35:58.930Z,11.80
2018-09-12T03:36:58.930Z,11.60
2018-09-12T03:37:58.921Z,11.20
2018-09-12T03:38:58.945Z,11.30
2018-09-12T03:39:58.937Z,11.60
2018-09-12T03:40:58.927Z,11.60
2018-09-12T03:41:58.950Z,12.40
2018-09-12T03:42:58.975Z,10.90
2018-09-12T03:43:58.939Z,12.90
2018-09-12T03:44:58.956Z,11.00
2018-09-12T03:45:58.935Z,10.10
2018-09-12T03:46:58.935Z,11.30
2018-09-12T03:47:58.980Z,11.40
2018-09-12T03:48:58.963Z,10.40
2018-09-12T03:49:58.945Z,10.70
2018-09-12T03:50:58.962Z,10.20
2018-09-12T03:51:58.954Z,10.60
2018-09-12T03:52:58.961Z,11.70
2018-09-12T03:53:58.952Z,11.20
2018-09-12T03:54:58.953Z,11.50
2018-09-12T03:55:58.966Z,10.70
2018-09-12T03:56:58.995Z,11.70
2018-09-12T03:57:58.976Z,11.50
2018-09-12T03:58:58.985Z,10.80
2018-09-12T03:59:58.981Z,11.40
2018-09-12T04:00:58.998Z,11.70
2018-09-12T04:01:58.995Z,11.00
2018-09-12T04:02:58.979Z,12.40
2018-09-12T04:03:58.972Z,10.90
2018-09-12T04:04:58.976Z,13.20
2018-09-12T04:05:58.983Z,11.20
2018-09-12T04:06:59.020Z,11.00
2018-09-12T04:07:58.995Z,10.70
2018-09-12T04:08:58.979Z,11.60
2018-09-12T04:09:59.008Z,11.80
2018-09-12T04:10:59.132Z,11.60
2018-09-12T04:11:58.997Z,11.50
2018-09-12T04:12:58.996Z,12.20
2018-09-12T04:13:59.003Z,11.60
2018-09-12T04:14:59.020Z,11.40
2018-09-12T04:15:59.007Z,12.00
2018-09-12T04:16:59.070Z,12.00
2018-09-12T04:17:59.024Z,11.20
2018-09-12T04:18:59.041Z,11.10
2018-09-12T04:19:59.020Z,11.50
2018-09-12T04:20:59.031Z,11.90
2018-09-12T04:21:59.034Z,12.30
2018-09-12T04:22:59.044Z,11.60
2018-09-12T04:23:59.102Z,12.50
2018-09-12T04:24:59.049Z,11.70
2018-09-12T04:25:59.034Z,12.10
2018-09-12T04:26:59.084Z,12.00
2018-09-12T04:27:59.054Z,11.40
2018-09-12T04:28:59.034Z,11.10
2018-09-12T04:29:59.034Z,11.40
2018-09-12T04:30:59.051Z,11.50
2018-09-12T04:31:59.034Z,12.10
2018-09-12T04:32:59.047Z,11.80
2018-09-12T04:33:59.047Z,11.60
2018-09-12T04:34:59.047Z,11.50
2018-09-12T04:35:59.054Z,11.50
2018-09-12T04:36:59.098Z,11.90
2018-09-12T04:37:59.061Z,12.70
2018-09-12T04:38:59.086Z,12.30
2018-09-12T04:39:59.081Z,12.50
2018-09-12T04:40:59.070Z,12.40
2018-09-12T04:41:59.070Z,12.30
2018-09-12T04:42:59.101Z,12.50
2018-09-12T04:43:59.097Z,12.30
2018-09-12T04:44:59.064Z,12.40
2018-09-12T04:45:59.065Z,13.20
2018-09-12T04:46:59.073Z,13.60
2018-09-12T04:47:59.077Z,13.20
2018-09-12T04:48:59.081Z,12.40
2018-09-12T04:49:59.086Z,12.50
2018-09-12T04:50:59.071Z,13.40
2018-09-12T04:52:00.116Z,12.90
2018-09-12T04:52:59.079Z,12.80
2018-09-12T04:53:59.120Z,12.40
2018-09-12T04:54:59.090Z,12.80
2018-09-12T04:55:59.090Z,13.40
2018-09-12T04:56:59.148Z,12.50
2018-09-12T04:57:59.145Z,13.20
2018-09-12T04:58:59.176Z,14.00
2018-09-12T04:59:59.147Z,14.10
2018-09-12T05:00:59.162Z,14.40
2018-09-12T05:01:59.100Z,13.40
2018-09-12T05:02:59.125Z,13.20
2018-09-12T05:03:59.104Z,13.80
2018-09-12T05:04:59.122Z,13.70
2018-09-12T05:05:59.113Z,13.60
2018-09-12T05:06:59.119Z,15.40
2018-09-12T05:07:59.119Z,14.70
2018-09-12T05:08:59.128Z,14.90
2018-09-12T05:09:59.123Z,15.80
2018-09-12T05:10:59.130Z,15.70
2018-09-12T05:11:59.155Z,15.70
2018-09-12T05:12:59.138Z,15.80
2018-09-12T05:13:59.137Z,15.70
2018-09-12T05:14:59.132Z,14.80
2018-09-12T05:15:59.148Z,15.40
2018-09-12T05:16:59.154Z,15.80
2018-09-12T05:17:59.149Z,16.00
2018-09-12T05:18:59.148Z,15.40
2018-09-12T05:19:59.175Z,15.80
2018-09-12T05:20:59.181Z,16.40
2018-09-12T05:21:59.180Z,17.60
2018-09-12T05:22:59.174Z,17.80
2018-09-12T05:23:59.155Z,18.90
2018-09-12T05:24:59.176Z,20.70
2018-09-12T05:25:59.168Z,20.90
2018-09-12T05:26:59.165Z,20.20
2018-09-12T05:27:59.157Z,18.90
2018-09-12T05:28:59.164Z,20.10
2018-09-12T05:29:59.172Z,20.70
2018-09-12T05:30:59.183Z,21.20
2018-09-12T05:31:59.171Z,21.40
2018-09-12T05:32:59.217Z,22.00
2018-09-12T05:33:59.165Z,22.70
2018-09-12T05:34:59.176Z,24.50
2018-09-12T05:35:59.299Z,23.30
2018-09-12T05:36:59.202Z,23.60
2018-09-12T05:37:59.196Z,22.90
2018-09-12T05:38:59.194Z,22.80
2018-09-12T05:39:59.208Z,22.50
2018-09-12T05:40:59.212Z,23.50
2018-09-12T05:41:59.228Z,22.50
2018-09-12T05:42:59.222Z,23.00
2018-09-12T05:43:59.293Z,21.80
2018-09-12T05:44:59.206Z,22.70
2018-09-12T05:45:59.219Z,21.90
2018-09-12T05:46:59.221Z,21.30
2018-09-12T05:47:59.242Z,22.80
2018-09-12T05:48:59.258Z,20.80
2018-09-12T05:49:59.264Z,20.80
2018-09-12T05:50:59.212Z,19.80
2018-09-12T05:51:59.231Z,19.80
2018-09-12T05:52:59.256Z,20.60
2018-09-12T05:53:59.222Z,19.20
2018-09-12T05:54:59.239Z,18.00
2018-09-12T05:55:59.253Z,17.60
2018-09-12T05:56:59.281Z,17.20
2018-09-12T05:57:59.244Z,18.10
2018-09-12T05:58:59.375Z,18.40
2018-09-12T05:59:59.253Z,18.80
2018-09-12T06:00:59.255Z,18.00
2018-09-12T06:01:59.258Z,18.00
2018-09-12T06:02:59.263Z,18.90
2018-09-12T06:03:59.254Z,18.70
2018-09-12T06:04:59.304Z,18.00
2018-09-12T06:05:59.300Z,18.70
2018-09-12T06:06:59.297Z,20.30
2018-09-12T06:07:59.270Z,19.50
2018-09-12T06:08:59.289Z,19.20
2018-09-12T06:09:59.253Z,19.10
2018-09-12T06:10:59.254Z,18.60
2018-09-12T06:11:59.376Z,18.80
2018-09-12T06:12:59.282Z,18.30
2018-09-12T06:13:59.288Z,18.30
2018-09-12T06:14:59.267Z,19.00
2018-09-12T06:15:59.275Z,18.90
2018-09-12T06:16:59.298Z,18.20
2018-09-12T06:17:59.287Z,17.30
2018-09-12T06:18:59.319Z,18.70
2018-09-12T06:19:59.339Z,18.30
2018-09-12T06:20:59.290Z,18.50
2018-09-12T06:21:59.308Z,19.20
2018-09-12T06:22:59.295Z,18.70
2018-09-12T06:23:59.348Z,18.80
2018-09-12T06:24:59.316Z,18.80
2018-09-12T06:25:59.316Z,18.50
2018-09-12T06:26:59.340Z,18.60
2018-09-12T06:27:59.306Z,18.90
2018-09-12T06:28:59.316Z,19.40
2018-09-12T06:29:59.429Z,19.40
2018-09-12T06:30:59.341Z,19.20
2018-09-12T06:31:59.316Z,19.60
2018-09-12T06:32:59.314Z,20.00
2018-09-12T06:33:59.321Z,20.00
2018-09-12T06:34:59.327Z,19.60
2018-09-12T06:35:59.326Z,18.50
2018-09-12T06:36:59.333Z,18.70
2018-09-12T06:37:59.324Z,18.70
2018-09-12T06:38:59.325Z,18.80
2018-09-12T06:39:59.362Z,19.00
2018-09-12T06:40:59.335Z,19.00
2018-09-12T06:41:59.335Z,21.00
2018-09-12T06:42:59.411Z,19.10
2018-09-12T06:43:59.373Z,20.30
2018-09-12T06:44:59.349Z,19.80
2018-09-12T06:45:59.419Z,20.90
2018-09-12T06:46:59.360Z,21.00
2018-09-12T06:47:59.372Z,21.60
2018-09-12T06:48:59.417Z,20.90
2018-09-12T06:49:59.694Z,19.50
2018-09-12T06:50:59.385Z,20.70
2018-09-12T06:51:59.380Z,20.30
2018-09-12T06:52:59.362Z,19.90
2018-09-12T06:53:59.439Z,21.40
2018-09-12T06:54:59.567Z,20.90
2018-09-12T06:55:59.498Z,23.00
2018-09-12T06:56:59.424Z,24.10
2018-09-12T06:57:59.370Z,23.50
2018-09-12T06:58:59.412Z,23.60
2018-09-12T06:59:59.398Z,22.30
2018-09-12T07:00:59.470Z,23.20
2018-09-12T07:01:59.400Z,22.70
2018-09-12T07:02:59.502Z,22.70
2018-09-12T07:03:59.401Z,22.10
2018-09-12T07:04:59.394Z,21.90
2018-09-12T07:05:59.418Z,20.90
2018-09-12T07:06:59.432Z,22.40
2018-09-12T07:07:59.400Z,22.30
2018-09-12T07:08:59.437Z,22.40
2018-09-12T07:09:59.420Z,22.00
2018-09-12T07:10:59.414Z,21.90
2018-09-12T07:12:06.483Z,21.00
2018-09-12T07:12:59.445Z,22.00
2018-09-12T07:13:59.541Z,22.90
2018-09-12T07:14:59.444Z,22.90
2018-09-12T07:15:59.476Z,22.50
2018-09-12T07:16:59.455Z,20.80
2018-09-12T07:17:59.519Z,22.00
2018-09-12T07:19:00.264Z,22.10
2018-09-12T07:19:59.472Z,22.00
2018-09-12T07:20:59.454Z,21.70
2018-09-12T07:21:59.537Z,21.60
2018-09-12T07:22:59.443Z,21.90
2018-09-12T07:23:59.522Z,21.40
2018-09-12T07:24:59.477Z,21.70
2018-09-12T07:25:59.471Z,22.40
2018-09-12T07:26:59.495Z,22.70
2018-09-12T07:27:59.478Z,22.60
2018-09-12T07:28:59.462Z,21.70
2018-09-12T07:29:59.487Z,22.60
2018-09-12T07:30:59.591Z,22.00
2018-09-12T07:31:59.509Z,21.30
2018-09-12T07:32:59.522Z,20.70
2018-09-12T07:33:59.485Z,19.50
2018-09-12T07:34:59.553Z,20.60
2018-09-12T07:35:59.480Z,20.20
2018-09-12T07:36:59.611Z,19.40
2018-09-12T07:37:59.545Z,19.70
2018-09-12T07:38:59.500Z,19.90
2018-09-12T07:39:59.555Z,19.50
2018-09-12T07:40:59.610Z,22.00
2018-09-12T07:41:59.550Z,18.30
2018-09-12T07:42:59.763Z,18.60
2018-09-12T07:43:59.816Z,18.00
2018-09-12T07:44:59.537Z,19.80
2018-09-12T07:45:59.637Z,19.80
2018-09-12T07:47:00.189Z,19.40
2018-09-12T07:47:59.537Z,19.40
2018-09-12T07:48:59.642Z,17.60
2018-09-12T07:49:59.638Z,17.30
2018-09-12T07:50:59.603Z,18.40
2018-09-12T07:51:59.563Z,17.30
2018-09-12T07:52:59.577Z,16.70
2018-09-12T07:53:59.608Z,16.30
2018-09-12T07:54:59.775Z,17.30
2018-09-12T07:55:59.650Z,17.10
2018-09-12T07:56:59.585Z,17.30
2018-09-12T07:57:59.600Z,18.10
2018-09-12T07:58:59.648Z,18.30
2018-09-12T07:59:59.644Z,16.20
2018-09-12T08:00:59.569Z,15.60
2018-09-12T08:01:59.612Z,14.80
2018-09-12T08:02:59.751Z,14.50
2018-09-12T08:03:59.649Z,14.90
2018-09-12T08:04:59.672Z,17.20
2018-09-12T08:05:59.611Z,15.20
2018-09-12T08:06:59.617Z,15.00
2018-09-12T08:07:59.731Z,14.40
2018-09-12T08:08:59.627Z,14.60
2018-09-12T08:09:59.669Z,14.30
2018-09-12T08:10:59.805Z,14.50
2018-09-12T08:11:59.773Z,13.40
2018-09-12T08:12:59.697Z,14.90
2018-09-12T08:14:02.320Z,14.80
2018-09-12T08:14:59.766Z,15.10
2018-09-12T08:15:59.711Z,13.90
2018-09-12T08:16:59.706Z,14.50
2018-09-12T08:17:59.750Z,15.20
2018-09-12T08:18:59.776Z,14.70
2018-09-12T08:19:59.816Z,14.90
2018-09-12T08:20:59.974Z,14.60
2018-09-12T08:21:59.754Z,15.40
2018-09-12T08:22:59.713Z,14.30
2018-09-12T08:23:59.771Z,13.50
2018-09-12T08:24:59.732Z,13.90
2018-09-12T08:25:59.856Z,14.00
2018-09-12T08:26:59.890Z,13.80
2018-09-12T08:27:59.741Z,12.90
2018-09-12T08:28:59.800Z,12.80
2018-09-12T08:29:59.810Z,11.90
2018-09-12T08:30:59.761Z,12.20
2018-09-12T08:31:59.775Z,11.50
2018-09-12T08:32:59.873Z,13.00
2018-09-12T08:34:00.011Z,12.30
2018-09-12T08:34:59.776Z,11.90
2018-09-12T08:35:59.863Z,11.80
2018-09-12T08:36:59.788Z,11.40
2018-09-12T08:38:00.389Z,10.60
2018-09-12T08:39:00.900Z,11.10
2018-09-12T08:39:59.919Z,10.80
2018-09-12T08:40:59.805Z,10.50
2018-09-12T08:41:59.896Z,10.50
2018-09-12T08:42:59.883Z,11.10
2018-09-12T08:43:59.865Z,10.50
2018-09-12T08:44:59.936Z,10.60
2018-09-12T08:46:00.704Z,9.80
2018-09-12T08:47:00.199Z,10.50
2018-09-12T08:47:59.895Z,9.70
2018-09-12T08:49:00.042Z,10.80
2018-09-12T08:49:59.937Z,12.00
2018-09-12T08:51:00.053Z,11.60
2018-09-12T08:52:00.011Z,11.50
2018-09-12T08:53:00.029Z,11.60
2018-09-12T08:54:00.073Z,11.00
2018-09-12T08:55:00.726Z,10.40
2018-09-12T08:56:00.009Z,12.30
2018-09-12T08:56:59.959Z,11.50
2018-09-12T08:57:59.962Z,11.10
2018-09-12T08:58:59.974Z,11.10
2018-09-12T09:00:00.124Z,10.80
2018-09-12T09:00:59.995Z,10.50
2018-09-12T09:02:00.717Z,11.00
2018-09-12T09:03:00.009Z,10.50
2018-09-12T09:04:00.095Z,10.00
2018-09-12T09:05:00.062Z,9.80
2018-09-12T09:06:00.071Z,11.90
2018-09-12T09:07:00.139Z,10.90
2018-09-12T09:08:00.146Z,11.00
2018-09-12T09:09:00.162Z,10.90
2018-09-12T09:10:00.110Z,11.10
2018-09-12T09:11:00.140Z,10.60
2018-09-12T09:12:00.040Z,10.60
2018-09-12T09:13:00.089Z,10.70
2018-09-12T09:14:00.100Z,9.50
2018-09-12T09:15:00.180Z,9.60
2018-09-12T09:16:00.724Z,10.40
2018-09-12T09:17:00.094Z,11.40
2018-09-12T09:18:00.147Z,11.20
2018-09-12T09:19:00.136Z,11.50
2018-09-12T09:20:00.211Z,10.80
2018-09-12T09:21:00.145Z,11.60
2018-09-12T09:22:00.226Z,11.10
2018-09-12T09:23:03.688Z,12.30
2018-09-12T09:24:00.139Z,11.90
2018-09-12T09:25:00.140Z,12.90
2018-09-12T09:26:00.128Z,11.70
2018-09-12T09:27:00.195Z,11.30
2018-09-12T09:28:00.195Z,10.80
2018-09-12T09:29:00.389Z,21.60
2018-09-12T09:30:00.200Z,12.80
2018-09-12T09:31:00.252Z,14.20
2018-09-12T09:32:00.232Z,12.90
2018-09-12T09:33:00.294Z,11.90
2018-09-12T09:34:00.182Z,11.90
2018-09-12T09:35:00.236Z,14.00
2018-09-12T09:36:01.232Z,12.50
2018-09-12T09:37:00.224Z,12.40
2018-09-12T09:38:00.293Z,11.50
2018-09-12T09:39:00.277Z,12.20
2018-09-12T09:40:00.247Z,13.00
2018-09-12T09:41:00.253Z,13.80
2018-09-12T09:42:00.239Z,12.20
2018-09-12T09:43:00.228Z,12.30
2018-09-12T09:44:00.336Z,11.40
2018-09-12T09:45:00.241Z,13.00
2018-09-12T09:46:00.323Z,13.60
2018-09-12T09:47:00.236Z,13.70
2018-09-12T09:48:00.453Z,12.40
2018-09-12T09:49:00.408Z,12.50
2018-09-12T09:50:00.258Z,12.30
2018-09-12T09:51:00.414Z,11.80
2018-09-12T09:52:00.376Z,11.90
2018-09-12T09:53:00.264Z,11.20
2018-09-12T09:54:00.754Z,11.80
2018-09-12T09:55:00.357Z,12.50
2018-09-12T09:56:00.365Z,11.70
2018-09-12T09:57:00.365Z,12.60
2018-09-12T09:58:00.392Z,12.10
2018-09-12T09:59:00.315Z,12.40
2018-09-12T10:00:00.416Z,11.80
2018-09-12T10:01:00.325Z,12.70
2018-09-12T10:02:00.451Z,13.20
2018-09-12T10:03:00.511Z,13.50
2018-09-12T10:04:00.686Z,12.80
2018-09-12T10:05:00.634Z,14.50
2018-09-12T10:06:00.470Z,12.90
2018-09-12T10:07:01.286Z,13.10
2018-09-12T10:08:00.341Z,13.90
2018-09-12T10:09:00.368Z,13.20
2018-09-12T10:10:01.267Z,14.70
2018-09-12T10:11:00.380Z,14.60
2018-09-12T10:12:00.553Z,13.60
2018-09-12T10:13:01.265Z,13.30
2018-09-12T10:14:00.376Z,13.40
2018-09-12T10:15:00.402Z,14.90
2018-09-12T10:16:00.433Z,13.40
2018-09-12T10:17:00.573Z,13.80
2018-09-12T10:18:00.414Z,13.70
2018-09-12T10:19:00.446Z,13.80
2018-09-12T10:20:00.446Z,14.00
2018-09-12T10:21:00.439Z,14.40
2018-09-12T10:22:00.434Z,12.90
2018-09-12T10:23:00.413Z,12.50
2018-09-12T10:24:00.553Z,13.50
2018-09-12T10:25:00.488Z,12.40
2018-09-12T10:26:01.418Z,11.40
2018-09-12T10:27:00.487Z,12.30
2018-09-12T10:28:00.504Z,11.40
2018-09-12T10:29:00.481Z,12.00
2018-09-12T10:30:01.460Z,11.70
2018-09-12T10:31:00.502Z,10.40
2018-09-12T10:32:01.153Z,10.30
2018-09-12T10:33:00.530Z,11.40
2018-09-12T10:34:00.577Z,8.90
2018-09-12T10:35:01.290Z,8.90
2018-09-12T10:36:00.572Z,7.40
2018-09-12T10:37:00.522Z,9.30
2018-09-12T10:38:01.275Z,6.70
2018-09-12T10:39:00.551Z,7.10
2018-09-12T10:40:00.545Z,6.50
2018-09-12T10:41:00.630Z,8.80
2018-09-12T10:42:00.582Z,6.40
2018-09-12T10:43:00.596Z,8.10
2018-09-12T10:44:00.564Z,6.00
2018-09-12T10:45:00.547Z,7.00
2018-09-12T10:46:00.692Z,6.50
2018-09-12T10:47:00.539Z,5.30
2018-09-12T10:48:00.609Z,6.00
2018-09-12T10:49:00.627Z,6.30
2018-09-12T10:50:00.586Z,5.70
2018-09-12T10:51:00.675Z,4.60
2018-09-12T10:52:00.599Z,5.10
2018-09-12T10:53:00.555Z,5.20
2018-09-12T10:54:00.642Z,6.40
2018-09-12T10:55:00.660Z,5.10
2018-09-12T10:56:00.590Z,5.30
2018-09-12T10:57:00.629Z,4.90
2018-09-12T10:58:00.615Z,5.10
2018-09-12T10:59:00.669Z,4.50
2018-09-12T11:00:00.654Z,5.80
2018-09-12T11:01:00.626Z,5.80
2018-09-12T11:02:00.641Z,6.40
2018-09-12T11:03:00.607Z,5.70
2018-09-12T11:04:00.747Z,8.60
2018-09-12T11:05:00.689Z,7.30
2018-09-12T11:06:00.618Z,5.70
2018-09-12T11:07:00.695Z,5.60
2018-09-12T11:08:00.653Z,6.10
2018-09-12T11:09:00.639Z,7.30
2018-09-12T11:10:00.647Z,7.70
2018-09-12T11:11:00.667Z,5.80
2018-09-12T11:12:00.681Z,4.70
2018-09-12T11:13:00.684Z,3.40
2018-09-12T11:14:00.716Z,3.90
2018-09-12T11:15:00.701Z,6.90
2018-09-12T11:16:00.648Z,5.00
2018-09-12T11:17:00.663Z,4.90
2018-09-12T11:18:00.662Z,3.70
2018-09-12T11:19:00.668Z,4.90
2018-09-12T11:20:00.682Z,3.70
2018-09-12T11:21:00.779Z,4.00
2018-09-12T11:22:00.739Z,4.20
2018-09-12T11:23:00.765Z,3.40
2018-09-12T11:24:00.737Z,3.70
2018-09-12T11:25:00.769Z,3.50
2018-09-12T11:26:01.466Z,3.80
2018-09-12T11:27:00.740Z,4.70
2018-09-12T11:28:00.753Z,3.60
2018-09-12T11:29:00.730Z,3.10
2018-09-12T11:30:00.750Z,3.40
2018-09-12T11:31:00.793Z,3.40
2018-09-12T11:32:00.729Z,3.60
2018-09-12T11:33:04.635Z,4.00
2018-09-12T11:34:00.745Z,6.10
2018-09-12T11:35:01.335Z,4.80
2018-09-12T11:36:00.804Z,4.60
2018-09-12T11:37:00.711Z,3.60
2018-09-12T11:39:05.629Z,4.30
2018-09-12T11:40:01.131Z,3.70
2018-09-12T11:41:00.771Z,4.70
2018-09-12T11:42:00.814Z,4.20
2018-09-12T11:43:00.778Z,3.80
2018-09-12T11:46:01.179Z,4.10
2018-09-12T11:47:06.092Z,3.60
2018-09-12T11:48:01.326Z,4.80
2018-09-12T11:49:02.201Z,7.20
2018-09-12T11:51:00.918Z,6.20
2018-09-12T11:52:00.801Z,3.80
2018-09-12T11:53:00.876Z,4.40
2018-09-12T11:54:00.808Z,5.20
2018-09-12T11:55:00.846Z,4.40
2018-09-12T11:56:00.844Z,5.60
2018-09-12T11:57:00.820Z,6.90
2018-09-12T11:58:01.314Z,7.10
2018-09-12T11:59:00.803Z,4.50
2018-09-12T12:00:00.820Z,5.80
2018-09-12T12:01:00.830Z,4.80
2018-09-12T12:02:00.837Z,5.10
2018-09-12T12:03:00.837Z,5.40
2018-09-12T12:04:00.856Z,5.80
2018-09-12T12:05:00.872Z,5.20
2018-09-12T12:06:00.990Z,5.50
2018-09-12T12:07:00.868Z,4.80
2018-09-12T12:08:00.833Z,6.60
2018-09-12T12:09:00.842Z,5.70
2018-09-12T12:10:01.007Z,8.50
2018-09-12T12:11:00.897Z,6.70
2018-09-12T12:12:00.865Z,5.80
2018-09-12T12:13:00.883Z,5.20
2018-09-12T12:14:00.871Z,6.40
2018-09-12T12:15:00.842Z,5.70
2018-09-12T12:16:01.823Z,5.90
2018-09-12T12:17:00.909Z,5.60
2018-09-12T12:18:00.889Z,5.00
2018-09-12T12:19:01.829Z,6.60
2018-09-12T12:20:00.955Z,7.40
2018-09-12T12:21:00.877Z,6.40
2018-09-12T12:22:01.036Z,7.20
2018-09-12T12:23:00.958Z,5.60
2018-09-12T12:24:01.003Z,5.40
2018-09-12T12:25:00.927Z,6.70
2018-09-12T12:26:00.973Z,7.60
2018-09-12T12:27:00.904Z,8.20
2018-09-12T12:28:03.470Z,8.80
2018-09-12T12:29:01.832Z,10.20
2018-09-12T12:30:00.967Z,7.10
2018-09-12T12:31:00.938Z,8.30
2018-09-12T12:32:01.836Z,7.30
2018-09-12T12:33:01.003Z,7.80
2018-09-12T12:34:01.435Z,8.00
2018-09-12T12:35:01.028Z,6.90
2018-09-12T12:36:01.034Z,8.80
2018-09-12T12:37:00.919Z,7.00
2018-09-12T12:38:00.930Z,7.50
2018-09-12T12:39:00.918Z,10.10
2018-09-12T12:40:00.933Z,8.50
2018-09-12T12:41:00.962Z,8.00
2018-09-12T12:42:01.058Z,9.30
2018-09-12T12:43:01.005Z,8.10
2018-09-12T12:44:00.962Z,9.60
2018-09-12T12:45:01.845Z,7.70
2018-09-12T12:46:00.967Z,8.50
2018-09-12T12:47:00.990Z,12.50
2018-09-12T12:48:00.963Z,9.20
2018-09-12T12:49:00.953Z,8.30
2018-09-12T12:50:01.078Z,8.20
2018-09-12T12:51:00.989Z,8.40
2018-09-12T12:52:01.047Z,10.10
2018-09-12T12:53:00.996Z,10.20
2018-09-12T12:54:01.007Z,8.10
2018-09-12T12:55:00.972Z,10.10
2018-09-12T12:56:01.038Z,9.80
2018-09-12T12:57:00.989Z,10.10
2018-09-12T12:58:00.995Z,10.00
2018-09-12T12:59:00.998Z,11.00
2018-09-12T13:00:01.094Z,11.20
2018-09-12T13:01:01.114Z,10.90
2018-09-12T13:02:01.069Z,12.10
2018-09-12T13:03:01.051Z,11.50
2018-09-12T13:04:01.007Z,13.50
2018-09-12T13:05:01.007Z,12.90
2018-09-12T13:06:01.956Z,11.50
2018-09-12T13:07:01.045Z,14.70